sensor_id;sensor_type;location;lat;lon;timestamp;pressure;altitude;pressure_sealevel;temperature;humidity
61271;BME280;47150;53.032;8.960;2023-02-03T00:00:24;101800.09;;;20.07;100.00
61271;BME280;47150;53.032;8.960;2023-02-03T00:02:53;101792.97;;;20.51;100.00
61271;BME280;47150;53.032;8.960;2023-02-03T00:05:19;101786.97;;;19.11;100.00
61271;BME280;47150;53.032;8.960;2023-02-03T00:07:45;101803.94;;;18.04;100.00
61271;BME280;47150;53.032;8.960;2023-02-03T00:10:10;101801.66;;;21.16;100.00
61271;BME280;47150;53.032;8.960;2023-02-03T00:12:36;101809.78;;;19.88;100.00
61271;BME280;47150;53.032;8.960;2023-02-03T00:15:02;101800.34;;;19.10;100.00
61271;BME280;47150;53.032;8.960;2023-02-03T00:17:28;101799.56;;;19.76;100.00
61271;BME280;47150;53.032;8.960;2023-02-03T00:19:53;101808.53;;;18.53;100.00
61271;BME280;47150;53.032;8.960;2023-02-03T00:22:19;101804.16;;;19.50;100.00
61271;BME280;47150;53.032;8.960;2023-02-03T00:24:44;101798.41;;;18.11;100.00
61271;BME280;47150;53.032;8.960;2023-02-03T00:27:10;101800.00;;;18.68;100.00
61271;BME280;47150;53.032;8.960;2023-02-03T00:29:35;101811.31;;;19.95;100.00
61271;BME280;47150;53.032;8.960;2023-02-03T00:32:01;101807.41;;;18.60;100.00
61271;BME280;47150;53.032;8.960;2023-02-03T00:34:28;101810.78;;;19.85;100.00
61271;BME280;47150;53.032;8.960;2023-02-03T00:36:54;101815.69;;;19.96;100.00
61271;BME280;47150;53.032;8.960;2023-02-03T00:39:20;101810.75;;;20.72;100.00
61271;BME280;47150;53.032;8.960;2023-02-03T00:41:46;101812.72;;;20.47;100.00
61271;BME280;47150;53.032;8.960;2023-02-03T00:44:13;101830.78;;;18.25;100.00
61271;BME280;47150;53.032;8.960;2023-02-03T00:46:39;101826.66;;;17.86;100.00
61271;BME280;47150;53.032;8.960;2023-02-03T00:49:05;101818.41;;;19.49;100.00
61271;BME280;47150;53.032;8.960;2023-02-03T00:51:32;101820.06;;;18.27;100.00
61271;BME280;47150;53.032;8.960;2023-02-03T00:53:58;101813.75;;;19.78;100.00
61271;BME280;47150;53.032;8.960;2023-02-03T00:56:24;101812.31;;;18.19;100.00
61271;BME280;47150;53.032;8.960;2023-02-03T00:58:50;101799.97;;;18.95;100.00
61271;BME280;47150;53.032;8.960;2023-02-03T01:01:15;101807.16;;;18.68;100.00
61271;BME280;47150;53.032;8.960;2023-02-03T01:03:41;101788.25;;;19.70;100.00
61271;BME280;47150;53.032;8.960;2023-02-03T01:06:16;101786.94;;;20.66;96.18
61271;BME280;47150;53.032;8.960;2023-02-03T01:08:43;101799.69;;;18.78;100.00
61271;BME280;47150;53.032;8.960;2023-02-03T01:11:15;101807.19;;;18.66;100.00
61271;BME280;47150;53.032;8.960;2023-02-03T01:13:43;101778.78;;;19.16;100.00
61271;BME280;47150;53.032;8.960;2023-02-03T01:16:10;101785.56;;;19.48;100.00
61271;BME280;47150;53.032;8.960;2023-02-03T01:18:38;101787.03;;;18.84;100.00
61271;BME280;47150;53.032;8.960;2023-02-03T01:21:18;101779.47;;;19.90;100.00
61271;BME280;47150;53.032;8.960;2023-02-03T01:23:46;101774.69;;;18.04;100.00
61271;BME280;47150;53.032;8.960;2023-02-03T01:26:14;101774.31;;;17.87;100.00
61271;BME280;47150;53.032;8.960;2023-02-03T01:28:41;101768.06;;;19.63;100.00
61271;BME280;47150;53.032;8.960;2023-02-03T01:33:41;101739.25;;;19.51;100.00
61271;BME280;47150;53.032;8.960;2023-02-03T01:36:10;101739.06;;;19.10;100.00
61271;BME280;47150;53.032;8.960;2023-02-03T01:38:38;101730.47;;;20.14;100.00
61271;BME280;47150;53.032;8.960;2023-02-03T01:41:06;101736.44;;;18.59;100.00
61271;BME280;47150;53.032;8.960;2023-02-03T01:43:40;101738.72;;;19.87;100.00
61271;BME280;47150;53.032;8.960;2023-02-03T01:48:49;101719.38;;;18.65;100.00
61271;BME280;47150;53.032;8.960;2023-02-03T01:51:16;101697.41;;;18.83;100.00
61271;BME280;47150;53.032;8.960;2023-02-03T01:53:42;101695.75;;;18.55;100.00
61271;BME280;47150;53.032;8.960;2023-02-03T01:56:08;101697.66;;;19.47;100.00
61271;BME280;47150;53.032;8.960;2023-02-03T01:58:39;101687.25;;;20.26;99.77
61271;BME280;47150;53.032;8.960;2023-02-03T02:01:06;101708.47;;;18.96;100.00
61271;BME280;47150;53.032;8.960;2023-02-03T02:03:39;101690.69;;;20.07;100.00
61271;BME280;47150;53.032;8.960;2023-02-03T02:06:11;101705.16;;;18.15;100.00
61271;BME280;47150;53.032;8.960;2023-02-03T02:08:40;101697.75;;;20.50;93.42
61271;BME280;47150;53.032;8.960;2023-02-03T02:11:37;101685.13;;;20.14;93.81
61271;BME280;47150;53.032;8.960;2023-02-03T02:14:29;101689.97;;;20.45;97.60
61271;BME280;47150;53.032;8.960;2023-02-03T02:32:33;101702.78;;;20.16;98.40
61271;BME280;47150;53.032;8.960;2023-02-03T02:39:09;101674.75;;;19.85;99.60
61271;BME280;47150;53.032;8.960;2023-02-03T02:42:00;101678.28;;;19.19;97.75
61271;BME280;47150;53.032;8.960;2023-02-03T02:44:58;101678.66;;;19.32;97.28
61271;BME280;47150;53.032;8.960;2023-02-03T02:47:54;101657.44;;;19.96;88.77
61271;BME280;47150;53.032;8.960;2023-02-03T02:50:40;101678.69;;;18.85;99.40
61271;BME280;47150;53.032;8.960;2023-02-03T02:53:12;101654.66;;;18.86;100.00
61271;BME280;47150;53.032;8.960;2023-02-03T02:55:42;101687.94;;;19.00;100.00
61271;BME280;47150;53.032;8.960;2023-02-03T02:58:13;101662.91;;;18.31;100.00
61271;BME280;47150;53.032;8.960;2023-02-03T03:00:41;101656.31;;;20.62;87.14
61271;BME280;47150;53.032;8.960;2023-02-03T03:05:45;101658.19;;;18.14;100.00
61271;BME280;47150;53.032;8.960;2023-02-03T03:08:35;101657.09;;;18.94;96.49
61271;BME280;47150;53.032;8.960;2023-02-03T03:11:29;101629.25;;;19.68;94.94
61271;BME280;47150;53.032;8.960;2023-02-03T03:21:49;101633.31;;;20.38;88.39
61271;BME280;47150;53.032;8.960;2023-02-03T03:25:34;101641.50;;;20.15;78.34
61271;BME280;47150;53.032;8.960;2023-02-03T03:28:20;101638.31;;;19.42;95.39
61271;BME280;47150;53.032;8.960;2023-02-03T03:46:25;101621.28;;;18.54;100.00
61271;BME280;47150;53.032;8.960;2023-02-03T03:53:52;101627.16;;;18.87;97.49
61271;BME280;47150;53.032;8.960;2023-02-03T03:57:38;101631.53;;;20.58;87.04
61271;BME280;47150;53.032;8.960;2023-02-03T04:00:34;101630.56;;;17.93;99.00
61271;BME280;47150;53.032;8.960;2023-02-03T04:08:02;101621.13;;;19.49;92.67
61271;BME280;47150;53.032;8.960;2023-02-03T05:20:11;101561.50;;;18.15;100.00
61271;BME280;47150;53.032;8.960;2023-02-03T05:22:46;101549.31;;;19.66;90.65
61271;BME280;47150;53.032;8.960;2023-02-03T05:40:33;101574.09;;;20.10;90.60
61271;BME280;47150;53.032;8.960;2023-02-03T05:43:18;101565.75;;;19.35;100.00
61271;BME280;47150;53.032;8.960;2023-02-03T05:45:44;101550.44;;;19.61;100.00
61271;BME280;47150;53.032;8.960;2023-02-03T05:48:42;101544.19;;;19.19;100.00
61271;BME280;47150;53.032;8.960;2023-02-03T05:51:26;101535.19;;;20.44;95.78
61271;BME280;47150;53.032;8.960;2023-02-03T05:53:58;101555.28;;;19.71;100.00
61271;BME280;47150;53.032;8.960;2023-02-03T05:56:24;101548.31;;;19.05;100.00
61271;BME280;47150;53.032;8.960;2023-02-03T05:58:50;101548.13;;;19.94;100.00
61271;BME280;47150;53.032;8.960;2023-02-03T06:01:20;101544.63;;;19.71;100.00
61271;BME280;47150;53.032;8.960;2023-02-03T06:03:49;101536.34;;;18.00;100.00
61271;BME280;47150;53.032;8.960;2023-02-03T06:06:22;101540.38;;;20.28;100.00
61271;BME280;47150;53.032;8.960;2023-02-03T06:08:48;101528.75;;;19.48;100.00
61271;BME280;47150;53.032;8.960;2023-02-03T06:11:16;101526.50;;;19.38;100.00
61271;BME280;47150;53.032;8.960;2023-02-03T06:13:46;101517.00;;;20.14;99.82
61271;BME280;47150;53.032;8.960;2023-02-03T06:16:11;101509.91;;;19.73;100.00
61271;BME280;47150;53.032;8.960;2023-02-03T06:18:40;101515.25;;;19.73;100.00
61271;BME280;47150;53.032;8.960;2023-02-03T06:21:06;101516.97;;;18.90;100.00
61271;BME280;47150;53.032;8.960;2023-02-03T06:23:32;101523.63;;;17.58;100.00
61271;BME280;47150;53.032;8.960;2023-02-03T06:25:58;101518.81;;;18.88;100.00
61271;BME280;47150;53.032;8.960;2023-02-03T06:28:26;101514.00;;;17.56;100.00
61271;BME280;47150;53.032;8.960;2023-02-03T06:30:52;101508.03;;;16.95;100.00
61271;BME280;47150;53.032;8.960;2023-02-03T06:33:20;101513.28;;;17.24;100.00
61271;BME280;47150;53.032;8.960;2023-02-03T06:35:46;101501.13;;;20.11;100.00
61271;BME280;47150;53.032;8.960;2023-02-03T06:38:11;101516.13;;;17.44;100.00
61271;BME280;47150;53.032;8.960;2023-02-03T06:40:37;101503.72;;;18.19;100.00
61271;BME280;47150;53.032;8.960;2023-02-03T06:43:03;101507.56;;;17.36;100.00
61271;BME280;47150;53.032;8.960;2023-02-03T06:45:38;101515.28;;;17.44;100.00
61271;BME280;47150;53.032;8.960;2023-02-03T06:48:04;101497.63;;;17.93;100.00
61271;BME280;47150;53.032;8.960;2023-02-03T06:50:29;101499.78;;;19.19;100.00
61271;BME280;47150;53.032;8.960;2023-02-03T06:52:55;101502.91;;;17.43;100.00
61271;BME280;47150;53.032;8.960;2023-02-03T06:55:21;101470.09;;;17.18;100.00
61271;BME280;47150;53.032;8.960;2023-02-03T06:57:47;101479.03;;;19.05;100.00
61271;BME280;47150;53.032;8.960;2023-02-03T07:00:14;101478.59;;;17.79;100.00
61271;BME280;47150;53.032;8.960;2023-02-03T07:02:42;101470.63;;;18.50;100.00
61271;BME280;47150;53.032;8.960;2023-02-03T07:05:09;101460.50;;;19.23;100.00
61271;BME280;47150;53.032;8.960;2023-02-03T07:07:35;101459.03;;;18.95;100.00
61271;BME280;47150;53.032;8.960;2023-02-03T07:10:04;101467.75;;;18.77;100.00
61271;BME280;47150;53.032;8.960;2023-02-03T07:12:30;101458.28;;;17.76;100.00
61271;BME280;47150;53.032;8.960;2023-02-03T07:14:56;101453.53;;;18.33;100.00
61271;BME280;47150;53.032;8.960;2023-02-03T07:17:24;101464.94;;;17.64;100.00
61271;BME280;47150;53.032;8.960;2023-02-03T07:19:49;101458.53;;;17.70;100.00
61271;BME280;47150;53.032;8.960;2023-02-03T07:22:18;101466.69;;;18.36;100.00
61271;BME280;47150;53.032;8.960;2023-02-03T07:24:55;101457.00;;;17.39;100.00
61271;BME280;47150;53.032;8.960;2023-02-03T07:27:21;101457.97;;;18.55;100.00
61271;BME280;47150;53.032;8.960;2023-02-03T07:29:47;101455.38;;;18.76;100.00
61271;BME280;47150;53.032;8.960;2023-02-03T07:32:13;101458.34;;;19.93;100.00
61271;BME280;47150;53.032;8.960;2023-02-03T07:35:17;101444.63;;;18.11;100.00
61271;BME280;47150;53.032;8.960;2023-02-03T07:41:22;101453.06;;;17.98;100.00
61271;BME280;47150;53.032;8.960;2023-02-03T07:43:48;101463.16;;;19.85;100.00
61271;BME280;47150;53.032;8.960;2023-02-03T07:46:16;101476.94;;;19.74;97.30
61271;BME280;47150;53.032;8.960;2023-02-03T07:48:42;101463.97;;;19.04;100.00
61271;BME280;47150;53.032;8.960;2023-02-03T07:51:07;101451.03;;;20.73;90.70
61271;BME280;47150;53.032;8.960;2023-02-03T07:53:33;101465.47;;;20.12;88.02
61271;BME280;47150;53.032;8.960;2023-02-03T07:56:03;101454.50;;;19.59;99.72
61271;BME280;47150;53.032;8.960;2023-02-03T07:58:30;101463.16;;;19.85;93.41
61271;BME280;47150;53.032;8.960;2023-02-03T08:00:57;101464.78;;;19.27;100.00
61271;BME280;47150;53.032;8.960;2023-02-03T08:03:23;101458.06;;;19.60;100.00
61271;BME280;47150;53.032;8.960;2023-02-03T08:05:49;101472.31;;;19.59;100.00
61271;BME280;47150;53.032;8.960;2023-02-03T08:08:16;101462.72;;;19.54;100.00
61271;BME280;47150;53.032;8.960;2023-02-03T08:10:42;101467.81;;;19.40;100.00
61271;BME280;47150;53.032;8.960;2023-02-03T08:13:07;101476.91;;;21.25;91.67
61271;BME280;47150;53.032;8.960;2023-02-03T08:15:33;101478.13;;;20.27;100.00
61271;BME280;47150;53.032;8.960;2023-02-03T08:17:58;101473.44;;;19.94;93.47
61271;BME280;47150;53.032;8.960;2023-02-03T08:20:24;101449.91;;;18.57;100.00
61271;BME280;47150;53.032;8.960;2023-02-03T08:22:49;101476.44;;;19.86;100.00
61271;BME280;47150;53.032;8.960;2023-02-03T08:25:16;101480.91;;;20.24;92.79
61271;BME280;47150;53.032;8.960;2023-02-03T08:27:42;101457.84;;;20.04;96.67
61271;BME280;47150;53.032;8.960;2023-02-03T08:30:11;101486.88;;;18.42;100.00
61271;BME280;47150;53.032;8.960;2023-02-03T08:32:37;101474.66;;;19.66;100.00
61271;BME280;47150;53.032;8.960;2023-02-03T08:35:03;101471.91;;;20.46;98.77
61271;BME280;47150;53.032;8.960;2023-02-03T08:37:36;101489.91;;;19.21;100.00
61271;BME280;47150;53.032;8.960;2023-02-03T08:40:02;101499.19;;;19.33;100.00
61271;BME280;47150;53.032;8.960;2023-02-03T08:42:29;101491.50;;;19.46;100.00
61271;BME280;47150;53.032;8.960;2023-02-03T08:44:55;101494.69;;;19.96;95.42
61271;BME280;47150;53.032;8.960;2023-02-03T08:47:20;101505.25;;;18.48;100.00
61271;BME280;47150;53.032;8.960;2023-02-03T08:49:46;101548.47;;;19.44;100.00
61271;BME280;47150;53.032;8.960;2023-02-03T08:52:13;101512.03;;;19.65;100.00
61271;BME280;47150;53.032;8.960;2023-02-03T08:54:39;101516.75;;;19.17;100.00
61271;BME280;47150;53.032;8.960;2023-02-03T08:57:06;101513.66;;;20.08;98.10
61271;BME280;47150;53.032;8.960;2023-02-03T08:59:32;101515.56;;;18.80;100.00
61271;BME280;47150;53.032;8.960;2023-02-03T09:02:01;101526.22;;;20.45;98.79
61271;BME280;47150;53.032;8.960;2023-02-03T09:04:32;101537.03;;;18.99;100.00
61271;BME280;47150;53.032;8.960;2023-02-03T09:07:01;101553.66;;;20.29;100.00
61271;BME280;47150;53.032;8.960;2023-02-03T09:09:29;101565.34;;;19.87;100.00
61271;BME280;47150;53.032;8.960;2023-02-03T09:11:56;101521.66;;;19.05;100.00
61271;BME280;47150;53.032;8.960;2023-02-03T09:14:30;101554.31;;;19.31;100.00
61271;BME280;47150;53.032;8.960;2023-02-03T09:16:59;58537.06;;;-146.80;100.00
61271;BME280;47150;53.032;8.960;2023-02-03T09:19:29;58537.06;;;-146.80;100.00
61271;BME280;47150;53.032;8.960;2023-02-03T09:21:58;58537.06;;;-146.80;100.00
61271;BME280;47150;53.032;8.960;2023-02-03T09:24:24;58537.06;;;-146.80;100.00
61271;BME280;47150;53.032;8.960;2023-02-03T09:26:50;58537.06;;;-146.80;100.00
61271;BME280;47150;53.032;8.960;2023-02-03T09:29:19;58537.06;;;-146.80;100.00
61271;BME280;47150;53.032;8.960;2023-02-03T09:31:44;58537.06;;;-146.80;100.00
61271;BME280;47150;53.032;8.960;2023-02-03T09:34:46;58537.06;;;-146.80;100.00
61271;BME280;47150;53.032;8.960;2023-02-03T09:38:32;58537.06;;;-146.80;100.00
61271;BME280;47150;53.032;8.960;2023-02-03T09:44:35;58537.06;;;-146.80;100.00
61271;BME280;47150;53.032;8.960;2023-02-03T09:47:27;58537.06;;;-146.80;100.00
61271;BME280;47150;53.032;8.960;2023-02-03T09:50:02;58537.06;;;-146.80;100.00
61271;BME280;47150;53.032;8.960;2023-02-03T09:52:34;58537.06;;;-146.80;100.00
61271;BME280;47150;53.032;8.960;2023-02-03T09:55:04;58537.06;;;-146.80;100.00
61271;BME280;47150;53.032;8.960;2023-02-03T09:58:01;58537.06;;;-146.80;100.00
61271;BME280;47150;53.032;8.960;2023-02-03T10:00:57;58537.06;;;-146.80;100.00
61271;BME280;47150;53.032;8.960;2023-02-03T10:09:18;58537.06;;;-146.80;100.00
61271;BME280;47150;53.032;8.960;2023-02-03T10:18:12;58537.06;;;-146.80;100.00
61271;BME280;47150;53.032;8.960;2023-02-03T10:23:21;58537.06;;;-146.80;100.00
61271;BME280;47150;53.032;8.960;2023-02-03T10:25:54;58537.06;;;-146.80;100.00
61271;BME280;47150;53.032;8.960;2023-02-03T10:28:26;58537.06;;;-146.80;100.00
61271;BME280;47150;53.032;8.960;2023-02-03T10:30:57;58537.06;;;-146.80;100.00
61271;BME280;47150;53.032;8.960;2023-02-03T10:33:27;58537.06;;;-146.80;100.00
61271;BME280;47150;53.032;8.960;2023-02-03T10:36:03;58537.06;;;-146.80;100.00
61271;BME280;47150;53.032;8.960;2023-02-03T10:41:30;58537.06;;;-146.80;100.00
61271;BME280;47150;53.032;8.960;2023-02-03T10:43:57;58537.06;;;-146.80;100.00
61271;BME280;47150;53.032;8.960;2023-02-03T10:46:38;58537.06;;;-146.80;100.00
61271;BME280;47150;53.032;8.960;2023-02-03T10:49:16;58537.06;;;-146.80;100.00
61271;BME280;47150;53.032;8.960;2023-02-03T11:33:30;58537.06;;;-146.80;100.00
61271;BME280;47150;53.032;8.960;2023-02-03T11:36:52;58537.06;;;-146.80;100.00
61271;BME280;47150;53.032;8.960;2023-02-03T11:43:16;58537.06;;;-146.80;100.00
61271;BME280;47150;53.032;8.960;2023-02-03T11:57:28;58537.06;;;-146.80;100.00
61271;BME280;47150;53.032;8.960;2023-02-03T13:07:47;58537.06;;;-146.80;100.00
61271;BME280;47150;53.032;8.960;2023-02-03T13:10:25;58537.06;;;-146.80;100.00
61271;BME280;47150;53.032;8.960;2023-02-03T13:13:02;58537.06;;;-146.80;100.00
61271;BME280;47150;53.032;8.960;2023-02-03T13:15:36;58537.06;;;-146.80;100.00
61271;BME280;47150;53.032;8.960;2023-02-03T13:18:24;58537.06;;;-146.80;100.00
61271;BME280;47150;53.032;8.960;2023-02-03T13:21:02;58537.06;;;-146.80;100.00
61271;BME280;47150;53.032;8.960;2023-02-03T13:23:28;58537.06;;;-146.80;100.00
61271;BME280;47150;53.032;8.960;2023-02-03T13:29:33;58537.06;;;-146.80;100.00
61271;BME280;47150;53.032;8.960;2023-02-03T13:32:26;58537.06;;;-146.80;100.00
61271;BME280;47150;53.032;8.960;2023-02-03T13:35:20;58537.06;;;-146.80;100.00
61271;BME280;47150;53.032;8.960;2023-02-03T13:44:02;58537.06;;;-146.80;100.00
61271;BME280;47150;53.032;8.960;2023-02-03T13:46:33;58537.06;;;-146.80;100.00
61271;BME280;47150;53.032;8.960;2023-02-03T13:49:02;58537.06;;;-146.80;100.00
61271;BME280;47150;53.032;8.960;2023-02-03T13:51:33;58537.06;;;-146.80;100.00
61271;BME280;47150;53.032;8.960;2023-02-03T13:54:11;58537.06;;;-146.80;100.00
61271;BME280;47150;53.032;8.960;2023-02-03T13:56:56;58537.06;;;-146.80;100.00
61271;BME280;47150;53.032;8.960;2023-02-03T13:59:28;58537.06;;;-146.80;100.00
61271;BME280;47150;53.032;8.960;2023-02-03T14:07:30;58537.06;;;-146.80;100.00
61271;BME280;47150;53.032;8.960;2023-02-03T14:12:56;58537.06;;;-146.80;100.00
61271;BME280;47150;53.032;8.960;2023-02-03T14:15:30;58537.06;;;-146.80;100.00
61271;BME280;47150;53.032;8.960;2023-02-03T14:17:59;58537.06;;;-146.80;100.00
61271;BME280;47150;53.032;8.960;2023-02-03T14:25:39;58537.06;;;-146.80;100.00
61271;BME280;47150;53.032;8.960;2023-02-03T14:28:12;58537.06;;;-146.80;100.00
61271;BME280;47150;53.032;8.960;2023-02-03T14:31:18;58537.06;;;-146.80;100.00
61271;BME280;47150;53.032;8.960;2023-02-03T14:36:44;58537.06;;;-146.80;100.00
61271;BME280;47150;53.032;8.960;2023-02-03T14:47:42;58537.06;;;-146.80;100.00
61271;BME280;47150;53.032;8.960;2023-02-03T14:50:26;58537.06;;;-146.80;100.00
61271;BME280;47150;53.032;8.960;2023-02-03T14:56:22;58537.06;;;-146.80;100.00
61271;BME280;47150;53.032;8.960;2023-02-03T14:59:24;58537.06;;;-146.80;100.00
61271;BME280;47150;53.032;8.960;2023-02-03T15:02:15;58537.06;;;-146.80;100.00
61271;BME280;47150;53.032;8.960;2023-02-03T15:07:48;58537.06;;;-146.80;100.00
61271;BME280;47150;53.032;8.960;2023-02-03T15:10:20;58537.06;;;-146.80;100.00
61271;BME280;47150;53.032;8.960;2023-02-03T15:12:52;58537.06;;;-146.80;100.00
61271;BME280;47150;53.032;8.960;2023-02-03T15:17:57;58537.06;;;-146.80;100.00
61271;BME280;47150;53.032;8.960;2023-02-03T15:22:58;58537.06;;;-146.80;100.00
61271;BME280;47150;53.032;8.960;2023-02-03T15:25:26;58537.06;;;-146.80;100.00
61271;BME280;47150;53.032;8.960;2023-02-03T15:27:53;58537.06;;;-146.80;100.00
61271;BME280;47150;53.032;8.960;2023-02-03T15:30:27;58537.06;;;-146.80;100.00
61271;BME280;47150;53.032;8.960;2023-02-03T15:33:05;58537.06;;;-146.80;100.00
61271;BME280;47150;53.032;8.960;2023-02-03T15:35:36;58537.06;;;-146.80;100.00
61271;BME280;47150;53.032;8.960;2023-02-03T15:38:11;58537.06;;;-146.80;100.00
61271;BME280;47150;53.032;8.960;2023-02-03T15:40:50;58537.06;;;-146.80;100.00
61271;BME280;47150;53.032;8.960;2023-02-03T15:51:18;58537.06;;;-146.80;100.00
61271;BME280;47150;53.032;8.960;2023-02-03T15:56:46;58537.06;;;-146.80;100.00
61271;BME280;47150;53.032;8.960;2023-02-03T15:59:25;58537.06;;;-146.80;100.00
61271;BME280;47150;53.032;8.960;2023-02-03T16:02:20;58537.06;;;-146.80;100.00
61271;BME280;47150;53.032;8.960;2023-02-03T16:04:51;58537.06;;;-146.80;100.00
61271;BME280;47150;53.032;8.960;2023-02-03T16:07:21;58537.06;;;-146.80;100.00
61271;BME280;47150;53.032;8.960;2023-02-03T16:09:55;58537.06;;;-146.80;100.00
61271;BME280;47150;53.032;8.960;2023-02-03T16:12:26;58537.06;;;-146.80;100.00
61271;BME280;47150;53.032;8.960;2023-02-03T16:14:55;58537.06;;;-146.80;100.00
61271;BME280;47150;53.032;8.960;2023-02-03T16:17:36;58537.06;;;-146.80;100.00
61271;BME280;47150;53.032;8.960;2023-02-03T16:22:41;58537.06;;;-146.80;100.00
61271;BME280;47150;53.032;8.960;2023-02-03T16:25:27;58537.06;;;-146.80;100.00
61271;BME280;47150;53.032;8.960;2023-02-03T16:28:00;58537.06;;;-146.80;100.00
61271;BME280;47150;53.032;8.960;2023-02-03T16:31:15;58537.06;;;-146.80;100.00
61271;BME280;47150;53.032;8.960;2023-02-03T16:34:01;58537.06;;;-146.80;100.00
61271;BME280;47150;53.032;8.960;2023-02-03T16:36:56;58537.06;;;-146.80;100.00
61271;BME280;47150;53.032;8.960;2023-02-03T16:39:40;58537.06;;;-146.80;100.00
61271;BME280;47150;53.032;8.960;2023-02-03T16:42:24;58537.06;;;-146.80;100.00
61271;BME280;47150;53.032;8.960;2023-02-03T16:45:14;58537.06;;;-146.80;100.00
61271;BME280;47150;53.032;8.960;2023-02-03T16:47:59;58537.06;;;-146.80;100.00
61271;BME280;47150;53.032;8.960;2023-02-03T16:50:44;58537.06;;;-146.80;100.00
61271;BME280;47150;53.032;8.960;2023-02-03T16:53:29;58537.06;;;-146.80;100.00
61271;BME280;47150;53.032;8.960;2023-02-03T16:55:59;58537.06;;;-146.80;100.00
61271;BME280;47150;53.032;8.960;2023-02-03T16:58:27;58537.06;;;-146.80;100.00
61271;BME280;47150;53.032;8.960;2023-02-03T17:00:53;58537.06;;;-146.80;100.00
61271;BME280;47150;53.032;8.960;2023-02-03T17:03:22;58537.06;;;-146.80;100.00
61271;BME280;47150;53.032;8.960;2023-02-03T17:05:50;58537.06;;;-146.80;100.00
61271;BME280;47150;53.032;8.960;2023-02-03T17:08:19;58537.06;;;-146.80;100.00
61271;BME280;47150;53.032;8.960;2023-02-03T17:10:47;58537.06;;;-146.80;100.00
61271;BME280;47150;53.032;8.960;2023-02-03T17:13:17;58537.06;;;-146.80;100.00
61271;BME280;47150;53.032;8.960;2023-02-03T17:15:47;58537.06;;;-146.80;100.00
61271;BME280;47150;53.032;8.960;2023-02-03T17:18:17;58537.06;;;-146.80;100.00
61271;BME280;47150;53.032;8.960;2023-02-03T17:20:43;58537.06;;;-146.80;100.00
61271;BME280;47150;53.032;8.960;2023-02-03T17:23:11;58537.06;;;-146.80;100.00
61271;BME280;47150;53.032;8.960;2023-02-03T17:25:38;58537.06;;;-146.80;100.00
61271;BME280;47150;53.032;8.960;2023-02-03T17:28:06;58537.06;;;-146.80;100.00
61271;BME280;47150;53.032;8.960;2023-02-03T17:30:33;58537.06;;;-146.80;100.00
61271;BME280;47150;53.032;8.960;2023-02-03T17:33:04;58537.06;;;-146.80;100.00
61271;BME280;47150;53.032;8.960;2023-02-03T17:35:44;58537.06;;;-146.80;100.00
61271;BME280;47150;53.032;8.960;2023-02-03T17:38:11;58537.06;;;-146.80;100.00
61271;BME280;47150;53.032;8.960;2023-02-03T17:40:39;58537.06;;;-146.80;100.00
61271;BME280;47150;53.032;8.960;2023-02-03T17:43:06;58537.06;;;-146.80;100.00
61271;BME280;47150;53.032;8.960;2023-02-03T17:45:31;58537.06;;;-146.80;100.00
61271;BME280;47150;53.032;8.960;2023-02-03T17:47:57;58537.06;;;-146.80;100.00
61271;BME280;47150;53.032;8.960;2023-02-03T17:50:25;58537.06;;;-146.80;100.00
61271;BME280;47150;53.032;8.960;2023-02-03T17:52:51;58537.06;;;-146.80;100.00
61271;BME280;47150;53.032;8.960;2023-02-03T17:55:17;58537.06;;;-146.80;100.00
61271;BME280;47150;53.032;8.960;2023-02-03T17:57:43;58537.06;;;-146.80;100.00
61271;BME280;47150;53.032;8.960;2023-02-03T18:00:09;58537.06;;;-146.80;100.00
61271;BME280;47150;53.032;8.960;2023-02-03T18:02:35;58537.06;;;-146.80;100.00
61271;BME280;47150;53.032;8.960;2023-02-03T18:05:24;58537.06;;;-146.80;100.00
61271;BME280;47150;53.032;8.960;2023-02-03T18:07:51;58537.06;;;-146.80;100.00
61271;BME280;47150;53.032;8.960;2023-02-03T18:10:17;58537.06;;;-146.80;100.00
61271;BME280;47150;53.032;8.960;2023-02-03T18:12:42;58537.06;;;-146.80;100.00
61271;BME280;47150;53.032;8.960;2023-02-03T18:15:08;58537.06;;;-146.80;100.00
61271;BME280;47150;53.032;8.960;2023-02-03T18:17:34;58537.06;;;-146.80;100.00
61271;BME280;47150;53.032;8.960;2023-02-03T18:20:00;58537.06;;;-146.80;100.00
61271;BME280;47150;53.032;8.960;2023-02-03T18:22:26;58537.06;;;-146.80;100.00
61271;BME280;47150;53.032;8.960;2023-02-03T18:24:52;58537.06;;;-146.80;100.00
61271;BME280;47150;53.032;8.960;2023-02-03T18:27:19;58537.06;;;-146.80;100.00
61271;BME280;47150;53.032;8.960;2023-02-03T18:29:46;58537.06;;;-146.80;100.00
61271;BME280;47150;53.032;8.960;2023-02-03T18:32:13;58537.06;;;-146.80;100.00
61271;BME280;47150;53.032;8.960;2023-02-03T18:34:40;58537.06;;;-146.80;100.00
61271;BME280;47150;53.032;8.960;2023-02-03T18:37:06;58537.06;;;-146.80;100.00
61271;BME280;47150;53.032;8.960;2023-02-03T18:39:33;58537.06;;;-146.80;100.00
61271;BME280;47150;53.032;8.960;2023-02-03T18:41:58;58537.06;;;-146.80;100.00
61271;BME280;47150;53.032;8.960;2023-02-03T18:44:24;58537.06;;;-146.80;100.00
61271;BME280;47150;53.032;8.960;2023-02-03T18:46:52;58537.06;;;-146.80;100.00
61271;BME280;47150;53.032;8.960;2023-02-03T18:49:28;58537.06;;;-146.80;100.00
61271;BME280;47150;53.032;8.960;2023-02-03T18:51:59;58537.06;;;-146.80;100.00
61271;BME280;47150;53.032;8.960;2023-02-03T18:54:30;58537.06;;;-146.80;100.00
61271;BME280;47150;53.032;8.960;2023-02-03T18:56:56;58537.06;;;-146.80;100.00